sensor_id;sensor_type;location;lat;lon;timestamp;pressure;altitude;pressure_sealevel;temperature;humidity
75972;BME280;64651;47.540;19.088;2022-10-26T00:04:07;100904.06;;;9.88;92.98
75972;BME280;64651;47.540;19.088;2022-10-26T00:09:09;100904.56;;;9.80;93.25
75972;BME280;64651;47.540;19.088;2022-10-26T00:14:16;100914.84;;;9.63;93.32
75972;BME280;64651;47.540;19.088;2022-10-26T00:19:19;100914.06;;;9.41;93.25
75972;BME280;64651;47.540;19.088;2022-10-26T00:24:21;100926.00;;;9.24;93.56
75972;BME280;64651;47.540;19.088;2022-10-26T00:29:23;100921.41;;;9.08;93.76
75972;BME280;64651;47.540;19.088;2022-10-26T00:34:25;100928.34;;;9.16;94.26
75972;BME280;64651;47.540;19.088;2022-10-26T00:39:27;100921.69;;;9.33;94.19
75972;BME280;64651;47.540;19.088;2022-10-26T00:44:54;100922.84;;;9.16;94.59
75972;BME280;64651;47.540;19.088;2022-10-26T00:50:03;100921.41;;;9.08;95.01
75972;BME280;64651;47.540;19.088;2022-10-26T00:55:07;100914.53;;;9.06;95.16
75972;BME280;64651;47.540;19.088;2022-10-26T01:00:10;100908.25;;;9.10;95.21
75972;BME280;64651;47.540;19.088;2022-10-26T01:05:13;100898.31;;;9.04;95.42
75972;BME280;64651;47.540;19.088;2022-10-26T01:10:16;100911.47;;;9.02;95.47
75972;BME280;64651;47.540;19.088;2022-10-26T01:15:23;100904.56;;;9.00;95.37
75972;BME280;64651;47.540;19.088;2022-10-26T01:20:42;100903.88;;;8.87;95.47
75972;BME280;64651;47.540;19.088;2022-10-26T01:31:25;100900.53;;;8.85;95.87
75972;BME280;64651;47.540;19.088;2022-10-26T01:36:40;100904.47;;;8.89;96.02
75972;BME280;64651;47.540;19.088;2022-10-26T01:41:48;100905.53;;;8.88;96.31
75972;BME280;64651;47.540;19.088;2022-10-26T01:46:52;100902.41;;;8.80;95.89
75972;BME280;64651;47.540;19.088;2022-10-26T01:51:55;100895.06;;;8.64;95.59
75972;BME280;64651;47.540;19.088;2022-10-26T01:57:01;100871.19;;;8.42;95.38
75972;BME280;64651;47.540;19.088;2022-10-26T02:22:40;100894.22;;;8.41;96.06
75972;BME280;64651;47.540;19.088;2022-10-26T02:27:46;100883.16;;;8.36;95.94
75972;BME280;64651;47.540;19.088;2022-10-26T02:32:53;100891.00;;;8.28;96.09
75972;BME280;64651;47.540;19.088;2022-10-26T02:38:00;100890.50;;;8.31;96.06
75972;BME280;64651;47.540;19.088;2022-10-26T02:43:06;100892.06;;;8.27;96.31
75972;BME280;64651;47.540;19.088;2022-10-26T02:48:10;100896.66;;;8.21;96.31
75972;BME280;64651;47.540;19.088;2022-10-26T02:53:26;100895.75;;;8.15;96.35
75972;BME280;64651;47.540;19.088;2022-10-26T02:58:36;100911.00;;;8.11;96.40
75972;BME280;64651;47.540;19.088;2022-10-26T03:03:40;100908.53;;;8.10;96.27
75972;BME280;64651;47.540;19.088;2022-10-26T03:08:42;100911.44;;;8.03;96.29
75972;BME280;64651;47.540;19.088;2022-10-26T03:13:44;100919.91;;;8.02;96.38
75972;BME280;64651;47.540;19.088;2022-10-26T03:18:46;100919.16;;;7.90;96.20
75972;BME280;64651;47.540;19.088;2022-10-26T03:23:48;100923.06;;;7.94;96.16
75972;BME280;64651;47.540;19.088;2022-10-26T03:28:51;100916.94;;;7.87;96.01
75972;BME280;64651;47.540;19.088;2022-10-26T03:33:53;100937.91;;;7.81;95.98
75972;BME280;64651;47.540;19.088;2022-10-26T03:38:55;100938.59;;;7.71;95.82
75972;BME280;64651;47.540;19.088;2022-10-26T03:43:57;100942.59;;;7.81;95.97
75972;BME280;64651;47.540;19.088;2022-10-26T03:48:59;100942.25;;;7.77;96.17
75972;BME280;64651;47.540;19.088;2022-10-26T03:54:02;100945.56;;;7.79;96.07
75972;BME280;64651;47.540;19.088;2022-10-26T03:59:04;100936.38;;;7.85;96.11
75972;BME280;64651;47.540;19.088;2022-10-26T04:04:06;100962.00;;;7.96;95.99
75972;BME280;64651;47.540;19.088;2022-10-26T04:09:08;100961.84;;;7.86;96.29
75972;BME280;64651;47.540;19.088;2022-10-26T04:14:10;100954.88;;;7.95;96.61
75972;BME280;64651;47.540;19.088;2022-10-26T04:19:12;100962.75;;;7.91;96.74
75972;BME280;64651;47.540;19.088;2022-10-26T04:24:14;100960.50;;;7.88;96.75
75972;BME280;64651;47.540;19.088;2022-10-26T04:29:17;100958.53;;;8.00;96.84
75972;BME280;64651;47.540;19.088;2022-10-26T04:34:19;100957.84;;;7.93;96.99
75972;BME280;64651;47.540;19.088;2022-10-26T04:39:21;100966.50;;;7.85;96.92
75972;BME280;64651;47.540;19.088;2022-10-26T04:44:23;100958.91;;;7.75;96.77
75972;BME280;64651;47.540;19.088;2022-10-26T04:49:25;100964.91;;;7.72;96.80
75972;BME280;64651;47.540;19.088;2022-10-26T04:54:27;100967.44;;;7.62;96.86
75972;BME280;64651;47.540;19.088;2022-10-26T04:59:29;100958.91;;;7.59;96.83
75972;BME280;64651;47.540;19.088;2022-10-26T05:04:31;100963.22;;;7.55;96.89
75972;BME280;64651;47.540;19.088;2022-10-26T05:09:33;100955.47;;;7.52;97.03
75972;BME280;64651;47.540;19.088;2022-10-26T05:14:35;100964.12;;;7.60;97.11
75972;BME280;64651;47.540;19.088;2022-10-26T05:19:37;100963.78;;;7.57;97.05
75972;BME280;64651;47.540;19.088;2022-10-26T05:24:39;100956.81;;;7.49;96.94
75972;BME280;64651;47.540;19.088;2022-10-26T05:29:41;100972.75;;;7.52;96.86
75972;BME280;64651;47.540;19.088;2022-10-26T05:34:43;100979.78;;;7.48;96.75
75972;BME280;64651;47.540;19.088;2022-10-26T05:39:45;100989.31;;;7.46;96.73
75972;BME280;64651;47.540;19.088;2022-10-26T05:44:47;100988.38;;;7.68;96.16
75972;BME280;64651;47.540;19.088;2022-10-26T05:49:49;100989.63;;;7.61;96.13
75972;BME280;64651;47.540;19.088;2022-10-26T05:54:51;100998.31;;;7.58;96.04
75972;BME280;64651;47.540;19.088;2022-10-26T05:59:54;100985.22;;;7.60;95.96
75972;BME280;64651;47.540;19.088;2022-10-26T06:05:02;100999.31;;;7.68;95.91
75972;BME280;64651;47.540;19.088;2022-10-26T06:10:05;101012.28;;;7.73;95.80
75972;BME280;64651;47.540;19.088;2022-10-26T06:15:14;101020.97;;;8.15;94.88
75972;BME280;64651;47.540;19.088;2022-10-26T06:30:56;101025.25;;;8.94;93.26
75972;BME280;64651;47.540;19.088;2022-10-26T06:36:11;101026.19;;;9.70;91.11
75972;BME280;64651;47.540;19.088;2022-10-26T06:41:18;101033.97;;;9.78;90.80
75972;BME280;64651;47.540;19.088;2022-10-26T06:52:01;101029.81;;;9.76;90.94
75972;BME280;64651;47.540;19.088;2022-10-26T06:57:08;101035.38;;;9.81;91.30
75972;BME280;64651;47.540;19.088;2022-10-26T07:02:11;101044.03;;;9.95;91.11
75972;BME280;64651;47.540;19.088;2022-10-26T07:07:26;101049.00;;;9.98;91.29
75972;BME280;64651;47.540;19.088;2022-10-26T07:12:30;101059.22;;;10.02;90.99
75972;BME280;64651;47.540;19.088;2022-10-26T07:17:44;101054.09;;;10.11;90.54
75972;BME280;64651;47.540;19.088;2022-10-26T07:22:53;101047.88;;;10.21;90.23
75972;BME280;64651;47.540;19.088;2022-10-26T07:27:57;101044.75;;;10.39;89.72
75972;BME280;64651;47.540;19.088;2022-10-26T07:33:04;101050.44;;;10.64;89.11
75972;BME280;64651;47.540;19.088;2022-10-26T07:38:11;101048.13;;;10.88;88.29
75972;BME280;64651;47.540;19.088;2022-10-26T07:43:13;101054.03;;;11.12;87.86
75972;BME280;64651;47.540;19.088;2022-10-26T07:48:16;101059.78;;;11.57;85.99
75972;BME280;64651;47.540;19.088;2022-10-26T07:53:18;101059.91;;;11.98;84.35
75972;BME280;64651;47.540;19.088;2022-10-26T07:58:26;101055.00;;;12.25;82.71
75972;BME280;64651;47.540;19.088;2022-10-26T08:03:29;101040.94;;;12.42;81.56
75972;BME280;64651;47.540;19.088;2022-10-26T08:08:31;101042.31;;;12.49;81.01
75972;BME280;64651;47.540;19.088;2022-10-26T08:13:33;101042.56;;;12.58;80.80
75972;BME280;64651;47.540;19.088;2022-10-26T08:18:36;101039.00;;;12.47;80.74
75972;BME280;64651;47.540;19.088;2022-10-26T08:23:39;101046.72;;;12.60;80.99
75972;BME280;64651;47.540;19.088;2022-10-26T08:28:41;101045.88;;;12.75;80.96
75972;BME280;64651;47.540;19.088;2022-10-26T08:33:43;101051.09;;;12.87;80.54
75972;BME280;64651;47.540;19.088;2022-10-26T08:38:46;101045.56;;;12.97;79.31
75972;BME280;64651;47.540;19.088;2022-10-26T08:43:54;101046.06;;;13.29;80.52
75972;BME280;64651;47.540;19.088;2022-10-26T08:49:15;101051.78;;;13.53;79.04
75972;BME280;64651;47.540;19.088;2022-10-26T08:54:38;101050.41;;;14.00;77.45
75972;BME280;64651;47.540;19.088;2022-10-26T09:00:04;101049.69;;;14.62;75.09
75972;BME280;64651;47.540;19.088;2022-10-26T09:05:15;101058.28;;;18.01;63.41
75972;BME280;64651;47.540;19.088;2022-10-26T09:21:15;101059.81;;;22.18;49.08
75972;BME280;64651;47.540;19.088;2022-10-26T09:31:53;101052.72;;;24.29;42.86
75972;BME280;64651;47.540;19.088;2022-10-26T09:36:56;101058.03;;;25.02;41.70
75972;BME280;64651;47.540;19.088;2022-10-26T09:42:11;101072.06;;;24.86;41.57
75972;BME280;64651;47.540;19.088;2022-10-26T09:47:34;101063.87;;;24.01;43.12
75972;BME280;64651;47.540;19.088;2022-10-26T09:52:36;101073.31;;;23.24;44.62
75972;BME280;64651;47.540;19.088;2022-10-26T09:57:41;101067.87;;;21.91;48.97
75972;BME280;64651;47.540;19.088;2022-10-26T10:02:49;101083.12;;;20.27;53.67
75972;BME280;64651;47.540;19.088;2022-10-26T10:08:21;101074.25;;;23.16;47.01
75972;BME280;64651;47.540;19.088;2022-10-26T10:13:29;101079.03;;;25.20;41.87
75972;BME280;64651;47.540;19.088;2022-10-26T10:18:33;101076.09;;;22.25;48.41
75972;BME280;64651;47.540;19.088;2022-10-26T10:23:56;101088.47;;;18.44;61.16
75972;BME280;64651;47.540;19.088;2022-10-26T10:29:00;101087.47;;;17.22;66.34
75972;BME280;64651;47.540;19.088;2022-10-26T10:34:14;101092.66;;;16.82;68.57
75972;BME280;64651;47.540;19.088;2022-10-26T10:39:36;101095.91;;;16.33;70.47
75972;BME280;64651;47.540;19.088;2022-10-26T10:44:39;101088.41;;;16.52;70.23
75972;BME280;64651;47.540;19.088;2022-10-26T10:49:50;101080.72;;;16.82;68.53
75972;BME280;64651;47.540;19.088;2022-10-26T10:55:10;101076.88;;;17.37;66.80
75972;BME280;64651;47.540;19.088;2022-10-26T11:00:17;101076.84;;;17.10;67.55
75972;BME280;64651;47.540;19.088;2022-10-26T11:05:37;101076.91;;;17.65;65.88
75972;BME280;64651;47.540;19.088;2022-10-26T11:11:12;101071.19;;;17.15;67.49
75972;BME280;64651;47.540;19.088;2022-10-26T11:16:26;101073.59;;;16.57;69.87
75972;BME280;64651;47.540;19.088;2022-10-26T11:21:30;101060.03;;;16.88;69.10
75972;BME280;64651;47.540;19.088;2022-10-26T11:26:41;101079.66;;;17.24;67.92
75972;BME280;64651;47.540;19.088;2022-10-26T11:31:58;101065.69;;;16.83;69.41
75972;BME280;64651;47.540;19.088;2022-10-26T11:37:15;101064.22;;;17.31;67.95
75972;BME280;64651;47.540;19.088;2022-10-26T11:42:34;101059.63;;;18.40;63.97
75972;BME280;64651;47.540;19.088;2022-10-26T11:48:03;101049.66;;;21.09;55.83
75972;BME280;64651;47.540;19.088;2022-10-26T11:53:13;101052.22;;;20.67;55.13
75972;BME280;64651;47.540;19.088;2022-10-26T11:58:23;101059.75;;;19.98;58.02
75972;BME280;64651;47.540;19.088;2022-10-26T12:03:31;101053.50;;;20.01;57.79
75972;BME280;64651;47.540;19.088;2022-10-26T12:08:38;101057.06;;;17.94;64.86
75972;BME280;64651;47.540;19.088;2022-10-26T12:13:51;101056.66;;;17.59;66.64
75972;BME280;64651;47.540;19.088;2022-10-26T12:19:01;101054.63;;;17.78;66.51
75972;BME280;64651;47.540;19.088;2022-10-26T12:29:38;101051.38;;;18.79;62.90
75972;BME280;64651;47.540;19.088;2022-10-26T12:39:48;101050.56;;;18.34;64.64
75972;BME280;64651;47.540;19.088;2022-10-26T13:00:23;101044.13;;;19.40;60.97
75972;BME280;64651;47.540;19.088;2022-10-26T13:11:17;101040.78;;;18.59;63.61
75972;BME280;64651;47.540;19.088;2022-10-26T13:16:20;101040.44;;;18.60;63.89
75972;BME280;64651;47.540;19.088;2022-10-26T13:21:26;101038.09;;;18.54;64.07
75972;BME280;64651;47.540;19.088;2022-10-26T13:26:30;101039.47;;;18.43;64.52
75972;BME280;64651;47.540;19.088;2022-10-26T13:36:37;101037.37;;;18.26;65.27
75972;BME280;64651;47.540;19.088;2022-10-26T13:41:44;101044.03;;;18.16;65.71
75972;BME280;64651;47.540;19.088;2022-10-26T13:46:54;101049.06;;;17.65;67.20
75972;BME280;64651;47.540;19.088;2022-10-26T13:52:01;101042.88;;;17.40;68.40
75972;BME280;64651;47.540;19.088;2022-10-26T14:02:18;101051.59;;;17.20;69.23
75972;BME280;64651;47.540;19.088;2022-10-26T14:07:23;101045.97;;;17.12;69.88
75972;BME280;64651;47.540;19.088;2022-10-26T14:12:26;101049.25;;;17.00;70.38
75972;BME280;64651;47.540;19.088;2022-10-26T14:17:29;101054.97;;;16.90;71.02
75972;BME280;64651;47.540;19.088;2022-10-26T14:22:32;101049.22;;;16.86;70.95
75972;BME280;64651;47.540;19.088;2022-10-26T14:27:38;101053.34;;;16.89;71.13
75972;BME280;64651;47.540;19.088;2022-10-26T14:32:40;101045.53;;;17.04;70.43
75972;BME280;64651;47.540;19.088;2022-10-26T14:37:59;101056.84;;;16.94;71.07
75972;BME280;64651;47.540;19.088;2022-10-26T14:43:04;101052.28;;;16.85;71.69
75972;BME280;64651;47.540;19.088;2022-10-26T14:48:26;101054.03;;;16.81;72.01
75972;BME280;64651;47.540;19.088;2022-10-26T14:53:35;101046.91;;;16.75;72.20
75972;BME280;64651;47.540;19.088;2022-10-26T14:58:37;101059.25;;;16.69;72.52
75972;BME280;64651;47.540;19.088;2022-10-26T15:03:41;101054.91;;;16.62;72.98
75972;BME280;64651;47.540;19.088;2022-10-26T15:08:45;101059.56;;;16.48;73.86
75972;BME280;64651;47.540;19.088;2022-10-26T15:13:58;101054.47;;;16.37;74.22
75972;BME280;64651;47.540;19.088;2022-10-26T15:19:09;101062.25;;;16.35;74.40
75972;BME280;64651;47.540;19.088;2022-10-26T15:24:31;101057.13;;;16.28;74.62
75972;BME280;64651;47.540;19.088;2022-10-26T15:29:42;101063.44;;;16.15;75.39
75972;BME280;64651;47.540;19.088;2022-10-26T15:40:21;101083.75;;;15.92;76.78
75972;BME280;64651;47.540;19.088;2022-10-26T15:45:29;101077.00;;;15.79;77.62
75972;BME280;64651;47.540;19.088;2022-10-26T15:50:31;101087.38;;;15.68;78.25
75972;BME280;64651;47.540;19.088;2022-10-26T15:55:38;101091.69;;;15.56;78.87
75972;BME280;64651;47.540;19.088;2022-10-26T16:00:40;101095.88;;;15.53;79.18
75972;BME280;64651;47.540;19.088;2022-10-26T16:05:43;101093.44;;;15.47;79.70
75972;BME280;64651;47.540;19.088;2022-10-26T16:10:45;101101.22;;;15.44;80.16
75972;BME280;64651;47.540;19.088;2022-10-26T16:15:48;101103.22;;;15.39;80.33
75972;BME280;64651;47.540;19.088;2022-10-26T16:20:50;101104.34;;;15.38;80.60
75972;BME280;64651;47.540;19.088;2022-10-26T16:25:52;101114.31;;;15.39;80.63
75972;BME280;64651;47.540;19.088;2022-10-26T16:31:03;101114.59;;;15.37;80.81
75972;BME280;64651;47.540;19.088;2022-10-26T16:36:06;101116.47;;;15.47;80.23
75972;BME280;64651;47.540;19.088;2022-10-26T16:41:12;101120.88;;;15.48;80.02
75972;BME280;64651;47.540;19.088;2022-10-26T16:46:17;101131.50;;;15.41;80.45
75972;BME280;64651;47.540;19.088;2022-10-26T16:51:21;101137.63;;;15.38;80.36
75972;BME280;64651;47.540;19.088;2022-10-26T16:56:28;101128.19;;;15.39;80.51
75972;BME280;64651;47.540;19.088;2022-10-26T17:01:31;101132.37;;;15.36;80.96
75972;BME280;64651;47.540;19.088;2022-10-26T17:06:33;101132.47;;;15.26;81.59
75972;BME280;64651;47.540;19.088;2022-10-26T17:11:35;101144.44;;;15.22;81.92
75972;BME280;64651;47.540;19.088;2022-10-26T17:16:37;101140.62;;;15.18;81.88
75972;BME280;64651;47.540;19.088;2022-10-26T17:21:39;101140.31;;;15.19;82.04
75972;BME280;64651;47.540;19.088;2022-10-26T17:26:41;101143.34;;;15.23;81.89
75972;BME280;64651;47.540;19.088;2022-10-26T17:31:43;101155.53;;;15.22;81.88
75972;BME280;64651;47.540;19.088;2022-10-26T17:36:46;101156.66;;;15.21;81.58
75972;BME280;64651;47.540;19.088;2022-10-26T17:41:48;101164.75;;;15.17;82.22
75972;BME280;64651;47.540;19.088;2022-10-26T17:46:50;101160.88;;;15.13;82.53
75972;BME280;64651;47.540;19.088;2022-10-26T17:51:52;101170.34;;;15.12;82.71
75972;BME280;64651;47.540;19.088;2022-10-26T17:56:54;101171.63;;;15.20;82.14
75972;BME280;64651;47.540;19.088;2022-10-26T18:01:58;101167.91;;;15.06;83.04
75972;BME280;64651;47.540;19.088;2022-10-26T18:07:02;101179.00;;;15.00;82.43
75972;BME280;64651;47.540;19.088;2022-10-26T18:12:05;101204.94;;;14.81;83.31
75972;BME280;64651;47.540;19.088;2022-10-26T18:17:07;101193.44;;;14.58;84.37
75972;BME280;64651;47.540;19.088;2022-10-26T18:22:10;101191.94;;;14.37;85.55
75972;BME280;64651;47.540;19.088;2022-10-26T18:27:12;101195.03;;;14.20;86.19
75972;BME280;64651;47.540;19.088;2022-10-26T18:32:15;101200.09;;;13.98;87.15
75972;BME280;64651;47.540;19.088;2022-10-26T18:37:19;101199.34;;;13.82;88.11
75972;BME280;64651;47.540;19.088;2022-10-26T18:42:21;101209.91;;;13.50;89.37
75972;BME280;64651;47.540;19.088;2022-10-26T18:47:24;101211.91;;;13.29;90.26
75972;BME280;64651;47.540;19.088;2022-10-26T18:52:40;101209.13;;;13.14;91.04
75972;BME280;64651;47.540;19.088;2022-10-26T18:57:42;101217.97;;;13.16;91.39
75972;BME280;64651;47.540;19.088;2022-10-26T19:02:50;101215.16;;;13.01;91.73
75972;BME280;64651;47.540;19.088;2022-10-26T19:07:56;101193.63;;;12.83;92.27
75972;BME280;64651;47.540;19.088;2022-10-26T19:13:01;101226.19;;;12.71;92.68
75972;BME280;64651;47.540;19.088;2022-10-26T19:18:06;101242.47;;;12.67;92.58
75972;BME280;64651;47.540;19.088;2022-10-26T19:23:10;101257.94;;;12.68;92.44
75972;BME280;64651;47.540;19.088;2022-10-26T19:28:12;101275.34;;;12.74;91.82
75972;BME280;64651;47.540;19.088;2022-10-26T19:33:14;101278.66;;;12.81;91.02
75972;BME280;64651;47.540;19.088;2022-10-26T19:38:17;101285.31;;;12.90;90.14
75972;BME280;64651;47.540;19.088;2022-10-26T19:43:19;101285.31;;;12.85;89.93
75972;BME280;64651;47.540;19.088;2022-10-26T19:48:21;101290.78;;;12.65;90.50
75972;BME280;64651;47.540;19.088;2022-10-26T19:53:23;101295.94;;;12.41;91.19
75972;BME280;64651;47.540;19.088;2022-10-26T19:58:29;101311.69;;;12.50;91.38
75972;BME280;64651;47.540;19.088;2022-10-26T20:03:32;101312.78;;;12.44;91.81
75972;BME280;64651;47.540;19.088;2022-10-26T20:08:35;101313.09;;;12.53;91.89
75972;BME280;64651;47.540;19.088;2022-10-26T20:13:38;101326.94;;;12.63;91.62
75972;BME280;64651;47.540;19.088;2022-10-26T20:18:40;101324.72;;;12.60;91.58
75972;BME280;64651;47.540;19.088;2022-10-26T20:23:49;101312.09;;;12.74;91.08
75972;BME280;64651;47.540;19.088;2022-10-26T20:28:51;101330.84;;;12.72;91.17
75972;BME280;64651;47.540;19.088;2022-10-26T20:33:53;101333.84;;;12.60;91.47
75972;BME280;64651;47.540;19.088;2022-10-26T20:38:56;101332.16;;;12.54;91.76
75972;BME280;64651;47.540;19.088;2022-10-26T20:43:59;101328.25;;;12.50;91.85
75972;BME280;64651;47.540;19.088;2022-10-26T20:49:01;101335.44;;;12.46;92.11
75972;BME280;64651;47.540;19.088;2022-10-26T20:59:42;101344.41;;;12.79;90.94
75972;BME280;64651;47.540;19.088;2022-10-26T21:04:45;101346.59;;;12.72;91.12
75972;BME280;64651;47.540;19.088;2022-10-26T21:09:48;101341.38;;;12.85;90.57
75972;BME280;64651;47.540;19.088;2022-10-26T21:14:50;101346.91;;;12.85;90.59
75972;BME280;64651;47.540;19.088;2022-10-26T21:19:52;101343.59;;;12.88;90.53
75972;BME280;64651;47.540;19.088;2022-10-26T21:24:54;101336.72;;;12.91;90.45
75972;BME280;64651;47.540;19.088;2022-10-26T21:29:56;101351.63;;;12.95;90.22
75972;BME280;64651;47.540;19.088;2022-10-26T21:34:58;101353.88;;;13.03;89.88
75972;BME280;64651;47.540;19.088;2022-10-26T21:40:02;101359.66;;;13.01;89.63
75972;BME280;64651;47.540;19.088;2022-10-26T21:45:05;101360.75;;;12.95;89.87
75972;BME280;64651;47.540;19.088;2022-10-26T21:50:09;101357.66;;;12.87;90.02
75972;BME280;64651;47.540;19.088;2022-10-26T21:55:11;101356.03;;;12.86;89.89
75972;BME280;64651;47.540;19.088;2022-10-26T22:00:13;101365.69;;;12.88;89.71
75972;BME280;64651;47.540;19.088;2022-10-26T22:05:15;101364.31;;;12.86;89.57
75972;BME280;64651;47.540;19.088;2022-10-26T22:10:18;101371.47;;;12.87;89.37
75972;BME280;64651;47.540;19.088;2022-10-26T22:15:20;101361.56;;;12.91;89.10
75972;BME280;64651;47.540;19.088;2022-10-26T22:20:22;101367.62;;;12.88;88.94
75972;BME280;64651;47.540;19.088;2022-10-26T22:25:24;101373.13;;;12.78;89.27
75972;BME280;64651;47.540;19.088;2022-10-26T22:30:26;101385.53;;;12.75;89.43
75972;BME280;64651;47.540;19.088;2022-10-26T22:35:28;101387.72;;;12.68;89.72
75972;BME280;64651;47.540;19.088;2022-10-26T22:40:31;101385.22;;;12.62;89.93
75972;BME280;64651;47.540;19.088;2022-10-26T22:45:33;101381.59;;;12.56;90.24
75972;BME280;64651;47.540;19.088;2022-10-26T22:50:36;101381.84;;;12.49;90.46
75972;BME280;64651;47.540;19.088;2022-10-26T22:55:40;101381.84;;;12.49;90.47
75972;BME280;64651;47.540;19.088;2022-10-26T23:00:42;101399.16;;;12.40;90.72
75972;BME280;64651;47.540;19.088;2022-10-26T23:05:47;101393.75;;;12.13;91.44
75972;BME280;64651;47.540;19.088;2022-10-26T23:10:50;101399.56;;;11.79;92.54
75972;BME280;64651;47.540;19.088;2022-10-26T23:15:52;101415.38;;;11.62;93.35
75972;BME280;64651;47.540;19.088;2022-10-26T23:20:54;101413.78;;;11.39;94.11
75972;BME280;64651;47.540;19.088;2022-10-26T23:26:00;101407.44;;;11.39;94.57
75972;BME280;64651;47.540;19.088;2022-10-26T23:31:03;101400.56;;;11.15;95.16
75972;BME280;64651;47.540;19.088;2022-10-26T23:36:06;101408.62;;;11.21;95.42
75972;BME280;64651;47.540;19.088;2022-10-26T23:41:08;101410.06;;;11.29;95.45
75972;BME280;64651;47.540;19.088;2022-10-26T23:46:13;101414.44;;;11.25;95.52
75972;BME280;64651;47.540;19.088;2022-10-26T23:51:16;101408.97;;;11.30;95.69
75972;BME280;64651;47.540;19.088;2022-10-26T23:56:18;101411.19;;;11.06;95.93
